sensor_id;sensor_type;location;lat;lon;timestamp;temperature;humidity
23783;DHT22;12071;50.850;4.446;2023-05-10T00:18:20;13.60;1.00
23783;DHT22;12071;50.850;4.446;2023-05-10T00:27:30;13.70;1.00
23783;DHT22;12071;50.850;4.446;2023-05-10T00:47:08;13.80;1.00
23783;DHT22;12071;50.850;4.446;2023-05-10T01:17:39;13.80;1.00
23783;DHT22;12071;50.850;4.446;2023-05-10T01:20:07;13.60;1.00
23783;DHT22;12071;50.850;4.446;2023-05-10T01:46:23;13.80;1.00
23783;DHT22;12071;50.850;4.446;2023-05-10T02:16:01;13.40;1.00
23783;DHT22;12071;50.850;4.446;2023-05-10T02:18:39;13.40;1.00
23783;DHT22;12071;50.850;4.446;2023-05-10T02:21:08;13.60;1.00
23783;DHT22;12071;50.850;4.446;2023-05-10T02:23:44;13.40;1.00
23783;DHT22;12071;50.850;4.446;2023-05-10T02:26:11;13.40;1.00
23783;DHT22;12071;50.850;4.446;2023-05-10T02:28:37;13.50;1.00
23783;DHT22;12071;50.850;4.446;2023-05-10T02:34:27;13.50;1.00
23783;DHT22;12071;50.850;4.446;2023-05-10T02:40:00;13.30;1.00
23783;DHT22;12071;50.850;4.446;2023-05-10T02:42:32;13.20;1.00
23783;DHT22;12071;50.850;4.446;2023-05-10T02:45:01;13.10;1.00
23783;DHT22;12071;50.850;4.446;2023-05-10T02:47:28;13.20;1.00
23783;DHT22;12071;50.850;4.446;2023-05-10T02:50:03;13.20;1.00
23783;DHT22;12071;50.850;4.446;2023-05-10T02:52:47;13.20;1.00
23783;DHT22;12071;50.850;4.446;2023-05-10T02:55:37;13.30;1.00
23783;DHT22;12071;50.850;4.446;2023-05-10T03:01:26;13.20;1.00
23783;DHT22;12071;50.850;4.446;2023-05-10T03:07:22;13.30;1.00
23783;DHT22;12071;50.850;4.446;2023-05-10T03:16:32;13.30;1.00
23783;DHT22;12071;50.850;4.446;2023-05-10T03:26:07;13.30;1.00
23783;DHT22;12071;50.850;4.446;2023-05-10T03:38:17;13.20;1.00
23783;DHT22;12071;50.850;4.446;2023-05-10T03:40:42;13.20;1.00
23783;DHT22;12071;50.850;4.446;2023-05-10T03:46:30;13.20;1.00
23783;DHT22;12071;50.850;4.446;2023-05-10T03:52:17;13.20;1.00
23783;DHT22;12071;50.850;4.446;2023-05-10T03:54:43;13.10;1.00
23783;DHT22;12071;50.850;4.446;2023-05-10T04:00:19;13.20;1.00
23783;DHT22;12071;50.850;4.446;2023-05-10T04:02:45;13.10;1.00
23783;DHT22;12071;50.850;4.446;2023-05-10T04:05:11;13.10;1.00
23783;DHT22;12071;50.850;4.446;2023-05-10T04:07:36;13.20;1.00
23783;DHT22;12071;50.850;4.446;2023-05-10T04:10:02;13.10;1.00
23783;DHT22;12071;50.850;4.446;2023-05-10T04:12:28;13.00;1.00
23783;DHT22;12071;50.850;4.446;2023-05-10T04:14:54;13.00;1.00
23783;DHT22;12071;50.850;4.446;2023-05-10T04:17:44;13.10;1.00
23783;DHT22;12071;50.850;4.446;2023-05-10T04:20:11;13.00;1.00
23783;DHT22;12071;50.850;4.446;2023-05-10T04:22:36;13.20;1.00
23783;DHT22;12071;50.850;4.446;2023-05-10T04:25:02;13.40;1.00
23783;DHT22;12071;50.850;4.446;2023-05-10T04:27:34;13.20;1.00
23783;DHT22;12071;50.850;4.446;2023-05-10T04:30:00;13.10;1.00
23783;DHT22;12071;50.850;4.446;2023-05-10T04:32:26;13.10;1.00
23783;DHT22;12071;50.850;4.446;2023-05-10T04:35:04;13.20;1.00
23783;DHT22;12071;50.850;4.446;2023-05-10T04:37:30;13.10;1.00
23783;DHT22;12071;50.850;4.446;2023-05-10T04:43:18;13.20;1.00
23783;DHT22;12071;50.850;4.446;2023-05-10T04:45:44;13.10;1.00
23783;DHT22;12071;50.850;4.446;2023-05-10T04:48:10;13.10;1.00
23783;DHT22;12071;50.850;4.446;2023-05-10T04:54:16;13.00;1.00
23783;DHT22;12071;50.850;4.446;2023-05-10T04:56:42;13.10;1.00
23783;DHT22;12071;50.850;4.446;2023-05-10T04:59:08;13.30;1.00
23783;DHT22;12071;50.850;4.446;2023-05-10T05:04:40;13.50;1.00
23783;DHT22;12071;50.850;4.446;2023-05-10T05:07:42;13.40;1.00
23783;DHT22;12071;50.850;4.446;2023-05-10T05:13:24;13.20;1.00
23783;DHT22;12071;50.850;4.446;2023-05-10T05:16:15;13.20;1.00
23783;DHT22;12071;50.850;4.446;2023-05-10T05:18:50;13.50;1.00
23783;DHT22;12071;50.850;4.446;2023-05-10T05:21:16;13.60;1.00
23783;DHT22;12071;50.850;4.446;2023-05-10T05:23:42;13.60;1.00
23783;DHT22;12071;50.850;4.446;2023-05-10T05:26:08;13.60;1.00
23783;DHT22;12071;50.850;4.446;2023-05-10T05:28:33;13.60;1.00
23783;DHT22;12071;50.850;4.446;2023-05-10T05:31:03;13.70;1.00
23783;DHT22;12071;50.850;4.446;2023-05-10T05:36:50;13.60;1.00
23783;DHT22;12071;50.850;4.446;2023-05-10T05:39:16;13.60;1.00
23783;DHT22;12071;50.850;4.446;2023-05-10T05:41:42;13.90;1.00
23783;DHT22;12071;50.850;4.446;2023-05-10T05:44:32;13.80;1.00
23783;DHT22;12071;50.850;4.446;2023-05-10T05:46:58;13.80;1.00
23783;DHT22;12071;50.850;4.446;2023-05-10T05:49:26;13.90;1.00
23783;DHT22;12071;50.850;4.446;2023-05-10T05:51:52;13.90;1.00
23783;DHT22;12071;50.850;4.446;2023-05-10T05:54:17;13.80;1.00
23783;DHT22;12071;50.850;4.446;2023-05-10T05:56:43;13.60;1.00
23783;DHT22;12071;50.850;4.446;2023-05-10T05:59:13;13.40;1.00
23783;DHT22;12071;50.850;4.446;2023-05-10T06:01:38;13.30;1.00
23783;DHT22;12071;50.850;4.446;2023-05-10T06:07:51;13.30;1.00
23783;DHT22;12071;50.850;4.446;2023-05-10T06:10:29;13.50;1.00
23783;DHT22;12071;50.850;4.446;2023-05-10T06:12:55;13.50;1.00
23783;DHT22;12071;50.850;4.446;2023-05-10T06:22:05;13.90;1.00
23783;DHT22;12071;50.850;4.446;2023-05-10T06:24:31;13.70;1.00
23783;DHT22;12071;50.850;4.446;2023-05-10T06:30:37;13.50;1.00
23783;DHT22;12071;50.850;4.446;2023-05-10T06:50:08;13.30;1.00
23783;DHT22;12071;50.850;4.446;2023-05-10T06:53:08;13.30;1.00
23783;DHT22;12071;50.850;4.446;2023-05-10T07:13:26;13.20;1.00
23783;DHT22;12071;50.850;4.446;2023-05-10T07:16:01;13.40;1.00
23783;DHT22;12071;50.850;4.446;2023-05-10T07:19:04;13.30;1.00
23783;DHT22;12071;50.850;4.446;2023-05-10T07:25:05;13.40;1.00
23783;DHT22;12071;50.850;4.446;2023-05-10T07:27:31;13.20;1.00
23783;DHT22;12071;50.850;4.446;2023-05-10T07:30:21;13.00;1.00
23783;DHT22;12071;50.850;4.446;2023-05-10T07:32:47;12.90;1.00
23783;DHT22;12071;50.850;4.446;2023-05-10T07:38:20;12.90;1.00
23783;DHT22;12071;50.850;4.446;2023-05-10T07:41:20;13.10;1.00
23783;DHT22;12071;50.850;4.446;2023-05-10T07:47:08;13.00;1.00
23783;DHT22;12071;50.850;4.446;2023-05-10T07:52:56;12.90;1.00
23783;DHT22;12071;50.850;4.446;2023-05-10T07:55:21;12.80;1.00
23783;DHT22;12071;50.850;4.446;2023-05-10T08:27:27;13.10;1.00
23783;DHT22;12071;50.850;4.446;2023-05-10T08:33:37;13.30;1.00
23783;DHT22;12071;50.850;4.446;2023-05-10T08:36:03;13.60;1.00
23783;DHT22;12071;50.850;4.446;2023-05-10T09:19:07;14.10;99.90
23783;DHT22;12071;50.850;4.446;2023-05-10T09:25:14;14.10;99.90
23783;DHT22;12071;50.850;4.446;2023-05-10T09:27:47;13.70;99.90
23783;DHT22;12071;50.850;4.446;2023-05-10T09:33:43;13.60;99.90
23783;DHT22;12071;50.850;4.446;2023-05-10T09:36:09;13.60;99.90
23783;DHT22;12071;50.850;4.446;2023-05-10T09:38:48;13.80;99.90
23783;DHT22;12071;50.850;4.446;2023-05-10T09:41:21;13.80;99.90
23783;DHT22;12071;50.850;4.446;2023-05-10T09:43:47;13.80;99.90
23783;DHT22;12071;50.850;4.446;2023-05-10T09:46:14;14.00;99.90
23783;DHT22;12071;50.850;4.446;2023-05-10T09:48:42;14.10;99.90
23783;DHT22;12071;50.850;4.446;2023-05-10T09:51:09;13.90;99.90
23783;DHT22;12071;50.850;4.446;2023-05-10T09:53:34;13.80;99.90
23783;DHT22;12071;50.850;4.446;2023-05-10T09:56:00;14.10;99.90
23783;DHT22;12071;50.850;4.446;2023-05-10T09:58:26;14.00;99.90
23783;DHT22;12071;50.850;4.446;2023-05-10T10:00:52;14.10;99.90
23783;DHT22;12071;50.850;4.446;2023-05-10T10:03:20;14.20;99.90
23783;DHT22;12071;50.850;4.446;2023-05-10T10:05:47;13.90;99.90
23783;DHT22;12071;50.850;4.446;2023-05-10T10:08:43;13.80;99.90
23783;DHT22;12071;50.850;4.446;2023-05-10T10:11:10;13.90;99.90
23783;DHT22;12071;50.850;4.446;2023-05-10T10:13:35;13.70;99.90
23783;DHT22;12071;50.850;4.446;2023-05-10T10:16:02;13.80;99.90
23783;DHT22;12071;50.850;4.446;2023-05-10T10:21:34;14.00;99.90
23783;DHT22;12071;50.850;4.446;2023-05-10T10:24:00;14.00;99.90
23783;DHT22;12071;50.850;4.446;2023-05-10T10:26:25;14.20;99.90
23783;DHT22;12071;50.850;4.446;2023-05-10T10:31:41;14.40;99.90
23783;DHT22;12071;50.850;4.446;2023-05-10T10:34:11;14.30;99.90
23783;DHT22;12071;50.850;4.446;2023-05-10T10:36:46;14.10;99.90
23783;DHT22;12071;50.850;4.446;2023-05-10T10:39:12;14.20;99.90
23783;DHT22;12071;50.850;4.446;2023-05-10T10:45:20;14.40;99.90
23783;DHT22;12071;50.850;4.446;2023-05-10T10:47:46;14.10;99.90
23783;DHT22;12071;50.850;4.446;2023-05-10T11:00:43;14.10;99.90
23783;DHT22;12071;50.850;4.446;2023-05-10T11:03:19;14.30;99.90
23783;DHT22;12071;50.850;4.446;2023-05-10T11:05:49;14.00;99.90
23783;DHT22;12071;50.850;4.446;2023-05-10T11:15:02;14.50;99.90
23783;DHT22;12071;50.850;4.446;2023-05-10T11:17:28;14.70;99.90
23783;DHT22;12071;50.850;4.446;2023-05-10T11:20:08;14.90;99.90
23783;DHT22;12071;50.850;4.446;2023-05-10T11:22:50;15.20;99.90
23783;DHT22;12071;50.850;4.446;2023-05-10T11:25:54;15.00;99.90
23783;DHT22;12071;50.850;4.446;2023-05-10T11:28:32;15.30;99.90
23783;DHT22;12071;50.850;4.446;2023-05-10T11:30:57;15.40;99.90
23783;DHT22;12071;50.850;4.446;2023-05-10T11:33:23;15.40;99.90
23783;DHT22;12071;50.850;4.446;2023-05-10T11:42:20;15.20;99.90
23783;DHT22;12071;50.850;4.446;2023-05-10T11:44:47;15.30;99.90
23783;DHT22;12071;50.850;4.446;2023-05-10T11:47:13;15.50;99.90
23783;DHT22;12071;50.850;4.446;2023-05-10T11:49:57;15.50;99.90
23783;DHT22;12071;50.850;4.446;2023-05-10T11:52:54;15.40;99.90
23783;DHT22;12071;50.850;4.446;2023-05-10T11:55:51;15.70;99.90
23783;DHT22;12071;50.850;4.446;2023-05-10T12:05:04;17.10;99.90
23783;DHT22;12071;50.850;4.446;2023-05-10T12:07:31;17.30;1.00
23783;DHT22;12071;50.850;4.446;2023-05-10T12:10:13;17.30;1.00
23783;DHT22;12071;50.850;4.446;2023-05-10T12:12:46;17.20;1.00
23783;DHT22;12071;50.850;4.446;2023-05-10T12:15:38;17.40;1.00
23783;DHT22;12071;50.850;4.446;2023-05-10T12:18:13;17.20;1.00
23783;DHT22;12071;50.850;4.446;2023-05-10T12:24:07;16.90;1.00
23783;DHT22;12071;50.850;4.446;2023-05-10T12:36:26;16.70;1.00
23783;DHT22;12071;50.850;4.446;2023-05-10T12:49:26;16.80;99.90
23783;DHT22;12071;50.850;4.446;2023-05-10T12:52:28;16.90;1.00
23783;DHT22;12071;50.850;4.446;2023-05-10T12:58:15;17.60;99.90
23783;DHT22;12071;50.850;4.446;2023-05-10T13:10:18;17.70;99.90
23783;DHT22;12071;50.850;4.446;2023-05-10T13:25:37;17.80;99.90
23783;DHT22;12071;50.850;4.446;2023-05-10T13:28:03;18.30;1.00
23783;DHT22;12071;50.850;4.446;2023-05-10T13:37:12;17.70;1.00
23783;DHT22;12071;50.850;4.446;2023-05-10T13:39:43;17.90;99.90
23783;DHT22;12071;50.850;4.446;2023-05-10T14:02:17;17.70;99.90
23783;DHT22;12071;50.850;4.446;2023-05-10T14:05:17;17.70;99.90
23783;DHT22;12071;50.850;4.446;2023-05-10T14:14:30;17.70;1.00
23783;DHT22;12071;50.850;4.446;2023-05-10T14:23:52;17.30;99.90
23783;DHT22;12071;50.850;4.446;2023-05-10T14:26:34;17.20;99.90
23783;DHT22;12071;50.850;4.446;2023-05-10T14:29:12;17.30;99.90
23783;DHT22;12071;50.850;4.446;2023-05-10T14:32:15;17.50;99.90
23783;DHT22;12071;50.850;4.446;2023-05-10T14:34:50;17.20;1.00
23783;DHT22;12071;50.850;4.446;2023-05-10T14:37:16;17.40;99.90
23783;DHT22;12071;50.850;4.446;2023-05-10T14:40:06;17.30;1.00
23783;DHT22;12071;50.850;4.446;2023-05-10T14:42:32;17.00;99.90
23783;DHT22;12071;50.850;4.446;2023-05-10T14:44:58;16.90;99.90
23783;DHT22;12071;50.850;4.446;2023-05-10T14:47:23;16.90;1.00
23783;DHT22;12071;50.850;4.446;2023-05-10T14:49:49;17.00;99.90
23783;DHT22;12071;50.850;4.446;2023-05-10T14:52:36;17.20;99.90
23783;DHT22;12071;50.850;4.446;2023-05-10T14:55:02;17.00;96.70
23783;DHT22;12071;50.850;4.446;2023-05-10T15:00:42;16.90;1.00
23783;DHT22;12071;50.850;4.446;2023-05-10T15:03:33;16.40;1.00
23783;DHT22;12071;50.850;4.446;2023-05-10T15:05:59;16.20;68.10
23783;DHT22;12071;50.850;4.446;2023-05-10T15:08:24;16.20;1.00
23783;DHT22;12071;50.850;4.446;2023-05-10T15:10:51;16.10;1.00
23783;DHT22;12071;50.850;4.446;2023-05-10T15:13:17;15.90;20.70
23783;DHT22;12071;50.850;4.446;2023-05-10T15:15:42;15.80;99.90
23783;DHT22;12071;50.850;4.446;2023-05-10T15:24:43;15.70;99.90
23783;DHT22;12071;50.850;4.446;2023-05-10T15:27:08;15.80;99.90
23783;DHT22;12071;50.850;4.446;2023-05-10T15:29:49;15.90;99.90
23783;DHT22;12071;50.850;4.446;2023-05-10T15:32:15;15.40;99.90
23783;DHT22;12071;50.850;4.446;2023-05-10T15:34:41;15.30;99.90
23783;DHT22;12071;50.850;4.446;2023-05-10T15:37:31;15.50;99.90
23783;DHT22;12071;50.850;4.446;2023-05-10T15:39:57;15.60;1.00
23783;DHT22;12071;50.850;4.446;2023-05-10T15:42:31;15.70;87.10
23783;DHT22;12071;50.850;4.446;2023-05-10T15:44:57;15.90;1.00
23783;DHT22;12071;50.850;4.446;2023-05-10T15:47:26;15.90;1.00
23783;DHT22;12071;50.850;4.446;2023-05-10T15:49:53;15.90;99.90
23783;DHT22;12071;50.850;4.446;2023-05-10T15:52:18;15.90;39.10
23783;DHT22;12071;50.850;4.446;2023-05-10T15:54:45;15.90;1.00
23783;DHT22;12071;50.850;4.446;2023-05-10T15:57:30;15.90;99.90
23783;DHT22;12071;50.850;4.446;2023-05-10T15:59:55;15.90;99.90
23783;DHT22;12071;50.850;4.446;2023-05-10T16:02:21;16.10;99.90
23783;DHT22;12071;50.850;4.446;2023-05-10T16:04:59;16.40;99.90
23783;DHT22;12071;50.850;4.446;2023-05-10T16:07:31;16.50;99.90
23783;DHT22;12071;50.850;4.446;2023-05-10T16:09:57;16.60;99.90
23783;DHT22;12071;50.850;4.446;2023-05-10T16:12:44;16.60;1.00
23783;DHT22;12071;50.850;4.446;2023-05-10T16:15:11;16.20;99.90
23783;DHT22;12071;50.850;4.446;2023-05-10T16:17:36;16.30;1.00
23783;DHT22;12071;50.850;4.446;2023-05-10T16:23:24;18.20;99.90
23783;DHT22;12071;50.850;4.446;2023-05-10T16:25:50;19.30;99.90
23783;DHT22;12071;50.850;4.446;2023-05-10T16:31:34;19.60;4.40
23783;DHT22;12071;50.850;4.446;2023-05-10T16:34:00;19.20;36.60
23783;DHT22;12071;50.850;4.446;2023-05-10T16:36:26;19.10;24.70
23783;DHT22;12071;50.850;4.446;2023-05-10T16:38:52;18.50;1.00
23783;DHT22;12071;50.850;4.446;2023-05-10T16:44:39;18.80;20.00
23783;DHT22;12071;50.850;4.446;2023-05-10T16:47:26;18.70;1.00
23783;DHT22;12071;50.850;4.446;2023-05-10T16:50:07;17.90;99.90
23783;DHT22;12071;50.850;4.446;2023-05-10T16:52:34;17.60;99.90
23783;DHT22;12071;50.850;4.446;2023-05-10T16:58:40;18.10;99.90
23783;DHT22;12071;50.850;4.446;2023-05-10T17:04:28;17.70;99.90
23783;DHT22;12071;50.850;4.446;2023-05-10T17:10:50;17.20;1.00
23783;DHT22;12071;50.850;4.446;2023-05-10T17:13:16;16.60;99.90
23783;DHT22;12071;50.850;4.446;2023-05-10T17:15:43;16.80;99.90
23783;DHT22;12071;50.850;4.446;2023-05-10T17:24:43;17.00;89.20
23783;DHT22;12071;50.850;4.446;2023-05-10T17:27:09;17.00;99.90
23783;DHT22;12071;50.850;4.446;2023-05-10T17:29:34;17.00;99.90
23783;DHT22;12071;50.850;4.446;2023-05-10T17:38:44;16.50;99.90
23783;DHT22;12071;50.850;4.446;2023-05-10T17:41:10;16.70;93.40
23783;DHT22;12071;50.850;4.446;2023-05-10T17:46:58;16.80;99.90
23783;DHT22;12071;50.850;4.446;2023-05-10T17:49:24;17.10;1.00
23783;DHT22;12071;50.850;4.446;2023-05-10T17:51:50;17.30;99.90
23783;DHT22;12071;50.850;4.446;2023-05-10T18:37:18;15.60;1.00
23783;DHT22;12071;50.850;4.446;2023-05-10T18:42:42;15.40;1.00
23783;DHT22;12071;50.850;4.446;2023-05-10T18:45:18;15.40;1.00
23783;DHT22;12071;50.850;4.446;2023-05-10T18:47:46;15.30;1.00
23783;DHT22;12071;50.850;4.446;2023-05-10T19:00:41;15.60;41.30
23783;DHT22;12071;50.850;4.446;2023-05-10T19:09:51;15.60;50.80
23783;DHT22;12071;50.850;4.446;2023-05-10T19:22:42;15.70;99.90
23783;DHT22;12071;50.850;4.446;2023-05-10T19:28:30;15.80;99.90
23783;DHT22;12071;50.850;4.446;2023-05-10T20:40:17;15.10;99.90
23783;DHT22;12071;50.850;4.446;2023-05-10T21:16:13;14.90;99.90
23783;DHT22;12071;50.850;4.446;2023-05-10T21:25:50;14.80;99.90
23783;DHT22;12071;50.850;4.446;2023-05-10T21:28:47;14.60;99.90
23783;DHT22;12071;50.850;4.446;2023-05-10T22:32:17;14.40;99.90
